sensor_id;sensor_type;location;lat;lon;timestamp;P1;durP1;ratioP1;P2;durP2;ratioP2
20114;SDS011;10218;42.874;25.320;2022-09-01T00:02:18;26.10;;;11.20;;
20114;SDS011;10218;42.874;25.320;2022-09-01T00:04:46;19.83;;;12.37;;
20114;SDS011;10218;42.874;25.320;2022-09-01T00:07:15;23.67;;;11.70;;
20114;SDS011;10218;42.874;25.320;2022-09-01T00:09:43;19.43;;;12.33;;
20114;SDS011;10218;42.874;25.320;2022-09-01T00:12:12;25.83;;;11.90;;
20114;SDS011;10218;42.874;25.320;2022-09-01T00:14:40;20.77;;;10.43;;
20114;SDS011;10218;42.874;25.320;2022-09-01T00:17:08;25.47;;;11.77;;
20114;SDS011;10218;42.874;25.320;2022-09-01T00:19:38;16.47;;;12.40;;
20114;SDS011;10218;42.874;25.320;2022-09-01T00:22:06;21.57;;;11.90;;
20114;SDS011;10218;42.874;25.320;2022-09-01T00:24:33;19.80;;;11.93;;
20114;SDS011;10218;42.874;25.320;2022-09-01T00:27:02;16.83;;;11.20;;
20114;SDS011;10218;42.874;25.320;2022-09-01T00:29:29;17.90;;;11.60;;
20114;SDS011;10218;42.874;25.320;2022-09-01T00:31:58;24.53;;;11.47;;
20114;SDS011;10218;42.874;25.320;2022-09-01T00:34:25;21.07;;;12.13;;
20114;SDS011;10218;42.874;25.320;2022-09-01T00:36:53;23.60;;;12.07;;
20114;SDS011;10218;42.874;25.320;2022-09-01T00:39:22;18.43;;;11.67;;
20114;SDS011;10218;42.874;25.320;2022-09-01T00:41:49;17.73;;;11.87;;
20114;SDS011;10218;42.874;25.320;2022-09-01T00:44:17;22.20;;;11.60;;
20114;SDS011;10218;42.874;25.320;2022-09-01T00:46:50;17.03;;;11.20;;
20114;SDS011;10218;42.874;25.320;2022-09-01T00:49:21;19.60;;;12.17;;
20114;SDS011;10218;42.874;25.320;2022-09-01T00:51:54;19.83;;;12.13;;
20114;SDS011;10218;42.874;25.320;2022-09-01T00:54:33;21.30;;;12.30;;
20114;SDS011;10218;42.874;25.320;2022-09-01T00:57:07;19.23;;;11.50;;
20114;SDS011;10218;42.874;25.320;2022-09-01T00:59:38;21.40;;;12.30;;
20114;SDS011;10218;42.874;25.320;2022-09-01T01:02:13;17.10;;;12.07;;
20114;SDS011;10218;42.874;25.320;2022-09-01T01:04:43;22.83;;;13.03;;
20114;SDS011;10218;42.874;25.320;2022-09-01T01:07:12;21.87;;;12.57;;
20114;SDS011;10218;42.874;25.320;2022-09-01T01:09:43;18.50;;;12.23;;
20114;SDS011;10218;42.874;25.320;2022-09-01T01:12:12;19.80;;;12.20;;
20114;SDS011;10218;42.874;25.320;2022-09-01T01:14:46;23.23;;;11.93;;
20114;SDS011;10218;42.874;25.320;2022-09-01T01:17:17;26.33;;;12.77;;
20114;SDS011;10218;42.874;25.320;2022-09-01T01:19:52;21.13;;;12.63;;
20114;SDS011;10218;42.874;25.320;2022-09-01T01:28:23;21.27;;;13.70;;
20114;SDS011;10218;42.874;25.320;2022-09-01T01:33:33;22.33;;;13.20;;
20114;SDS011;10218;42.874;25.320;2022-09-01T01:36:09;21.30;;;13.60;;
20114;SDS011;10218;42.874;25.320;2022-09-01T01:38:39;26.27;;;14.10;;
20114;SDS011;10218;42.874;25.320;2022-09-01T01:41:12;21.47;;;13.13;;
20114;SDS011;10218;42.874;25.320;2022-09-01T01:43:40;22.63;;;13.90;;
20114;SDS011;10218;42.874;25.320;2022-09-01T01:46:09;22.70;;;12.67;;
20114;SDS011;10218;42.874;25.320;2022-09-01T01:48:38;23.93;;;13.83;;
20114;SDS011;10218;42.874;25.320;2022-09-01T01:51:08;23.17;;;13.63;;
20114;SDS011;10218;42.874;25.320;2022-09-01T01:53:38;27.67;;;13.90;;
20114;SDS011;10218;42.874;25.320;2022-09-01T01:56:06;25.03;;;13.20;;
20114;SDS011;10218;42.874;25.320;2022-09-01T01:58:34;21.33;;;13.23;;
20114;SDS011;10218;42.874;25.320;2022-09-01T02:01:05;24.90;;;14.03;;
20114;SDS011;10218;42.874;25.320;2022-09-01T02:03:35;24.30;;;12.90;;
20114;SDS011;10218;42.874;25.320;2022-09-01T02:06:08;21.53;;;13.60;;
20114;SDS011;10218;42.874;25.320;2022-09-01T02:08:39;21.37;;;14.17;;
20114;SDS011;10218;42.874;25.320;2022-09-01T02:11:06;22.27;;;13.73;;
20114;SDS011;10218;42.874;25.320;2022-09-01T02:13:36;22.33;;;13.60;;
20114;SDS011;10218;42.874;25.320;2022-09-01T02:16:05;20.67;;;12.50;;
20114;SDS011;10218;42.874;25.320;2022-09-01T02:18:44;23.20;;;11.97;;
20114;SDS011;10218;42.874;25.320;2022-09-01T02:21:18;19.80;;;12.00;;
20114;SDS011;10218;42.874;25.320;2022-09-01T02:23:50;20.30;;;12.73;;
20114;SDS011;10218;42.874;25.320;2022-09-01T02:26:26;21.07;;;12.17;;
20114;SDS011;10218;42.874;25.320;2022-09-01T02:29:19;20.97;;;13.07;;
20114;SDS011;10218;42.874;25.320;2022-09-01T02:31:49;24.03;;;13.17;;
20114;SDS011;10218;42.874;25.320;2022-09-01T02:34:18;28.30;;;14.57;;
20114;SDS011;10218;42.874;25.320;2022-09-01T02:36:51;20.97;;;13.33;;
20114;SDS011;10218;42.874;25.320;2022-09-01T02:39:23;22.73;;;13.53;;
20114;SDS011;10218;42.874;25.320;2022-09-01T02:41:57;21.23;;;12.40;;
20114;SDS011;10218;42.874;25.320;2022-09-01T02:44:24;24.07;;;11.67;;
20114;SDS011;10218;42.874;25.320;2022-09-01T02:46:53;17.70;;;12.10;;
20114;SDS011;10218;42.874;25.320;2022-09-01T02:49:24;20.30;;;12.13;;
20114;SDS011;10218;42.874;25.320;2022-09-01T02:51:55;17.73;;;11.83;;
20114;SDS011;10218;42.874;25.320;2022-09-01T02:54:28;19.43;;;11.87;;
20114;SDS011;10218;42.874;25.320;2022-09-01T02:56:58;20.80;;;11.63;;
20114;SDS011;10218;42.874;25.320;2022-09-01T02:59:26;16.20;;;10.80;;
20114;SDS011;10218;42.874;25.320;2022-09-01T03:01:56;20.77;;;12.77;;
20114;SDS011;10218;42.874;25.320;2022-09-01T03:04:24;19.37;;;12.60;;
20114;SDS011;10218;42.874;25.320;2022-09-01T03:06:54;18.47;;;11.43;;
20114;SDS011;10218;42.874;25.320;2022-09-01T03:09:25;20.73;;;11.30;;
20114;SDS011;10218;42.874;25.320;2022-09-01T03:11:55;15.33;;;10.53;;
20114;SDS011;10218;42.874;25.320;2022-09-01T03:14:22;20.37;;;11.93;;
20114;SDS011;10218;42.874;25.320;2022-09-01T03:16:51;20.67;;;11.80;;
20114;SDS011;10218;42.874;25.320;2022-09-01T03:19:34;19.67;;;12.07;;
20114;SDS011;10218;42.874;25.320;2022-09-01T03:22:12;18.83;;;11.23;;
20114;SDS011;10218;42.874;25.320;2022-09-01T03:24:48;20.57;;;11.73;;
20114;SDS011;10218;42.874;25.320;2022-09-01T03:27:16;23.47;;;11.80;;
20114;SDS011;10218;42.874;25.320;2022-09-01T03:29:45;20.23;;;12.57;;
20114;SDS011;10218;42.874;25.320;2022-09-01T03:32:13;20.50;;;11.93;;
20114;SDS011;10218;42.874;25.320;2022-09-01T03:34:42;21.63;;;12.50;;
20114;SDS011;10218;42.874;25.320;2022-09-01T03:37:11;22.73;;;12.77;;
20114;SDS011;10218;42.874;25.320;2022-09-01T03:39:38;19.90;;;12.57;;
20114;SDS011;10218;42.874;25.320;2022-09-01T03:42:05;21.20;;;12.30;;
20114;SDS011;10218;42.874;25.320;2022-09-01T03:44:39;21.60;;;13.00;;
20114;SDS011;10218;42.874;25.320;2022-09-01T03:47:08;21.10;;;11.90;;
20114;SDS011;10218;42.874;25.320;2022-09-01T03:49:42;16.87;;;12.53;;
20114;SDS011;10218;42.874;25.320;2022-09-01T03:52:10;16.53;;;10.90;;
20114;SDS011;10218;42.874;25.320;2022-09-01T03:54:41;20.47;;;11.00;;
20114;SDS011;10218;42.874;25.320;2022-09-01T03:57:10;20.07;;;11.33;;
20114;SDS011;10218;42.874;25.320;2022-09-01T03:59:37;20.80;;;12.03;;
20114;SDS011;10218;42.874;25.320;2022-09-01T04:02:09;19.67;;;11.97;;
20114;SDS011;10218;42.874;25.320;2022-09-01T04:04:37;19.87;;;11.90;;
20114;SDS011;10218;42.874;25.320;2022-09-01T04:07:06;23.93;;;12.73;;
20114;SDS011;10218;42.874;25.320;2022-09-01T04:09:34;18.87;;;11.90;;
20114;SDS011;10218;42.874;25.320;2022-09-01T04:12:03;17.73;;;11.70;;
20114;SDS011;10218;42.874;25.320;2022-09-01T04:14:35;18.33;;;11.30;;
20114;SDS011;10218;42.874;25.320;2022-09-01T04:17:02;23.80;;;11.33;;
20114;SDS011;10218;42.874;25.320;2022-09-01T04:19:48;17.93;;;11.67;;
20114;SDS011;10218;42.874;25.320;2022-09-01T04:22:15;19.70;;;12.00;;
20114;SDS011;10218;42.874;25.320;2022-09-01T04:24:44;25.47;;;11.40;;
20114;SDS011;10218;42.874;25.320;2022-09-01T04:27:14;18.53;;;11.43;;
20114;SDS011;10218;42.874;25.320;2022-09-01T04:29:44;16.37;;;10.50;;
20114;SDS011;10218;42.874;25.320;2022-09-01T04:32:14;17.70;;;9.63;;
20114;SDS011;10218;42.874;25.320;2022-09-01T04:34:42;16.63;;;9.60;;
20114;SDS011;10218;42.874;25.320;2022-09-01T04:37:13;17.43;;;9.63;;
20114;SDS011;10218;42.874;25.320;2022-09-01T04:39:48;19.67;;;9.57;;
20114;SDS011;10218;42.874;25.320;2022-09-01T04:42:20;15.53;;;9.17;;
20114;SDS011;10218;42.874;25.320;2022-09-01T04:44:51;14.27;;;9.70;;
20114;SDS011;10218;42.874;25.320;2022-09-01T04:47:21;21.80;;;10.30;;
20114;SDS011;10218;42.874;25.320;2022-09-01T04:49:56;14.23;;;9.83;;
20114;SDS011;10218;42.874;25.320;2022-09-01T04:52:26;17.73;;;10.17;;
20114;SDS011;10218;42.874;25.320;2022-09-01T04:54:54;15.60;;;9.50;;
20114;SDS011;10218;42.874;25.320;2022-09-01T04:57:21;19.33;;;9.80;;
20114;SDS011;10218;42.874;25.320;2022-09-01T04:59:48;17.67;;;9.73;;
20114;SDS011;10218;42.874;25.320;2022-09-01T05:02:15;17.50;;;9.97;;
20114;SDS011;10218;42.874;25.320;2022-09-01T05:04:43;18.07;;;9.33;;
20114;SDS011;10218;42.874;25.320;2022-09-01T05:07:13;16.93;;;9.43;;
20114;SDS011;10218;42.874;25.320;2022-09-01T05:09:43;18.93;;;9.83;;
20114;SDS011;10218;42.874;25.320;2022-09-01T05:12:11;13.40;;;9.53;;
20114;SDS011;10218;42.874;25.320;2022-09-01T05:14:39;15.87;;;9.57;;
20114;SDS011;10218;42.874;25.320;2022-09-01T05:17:10;15.40;;;9.13;;
20114;SDS011;10218;42.874;25.320;2022-09-01T05:19:39;20.73;;;9.53;;
20114;SDS011;10218;42.874;25.320;2022-09-01T05:22:09;16.97;;;10.27;;
20114;SDS011;10218;42.874;25.320;2022-09-01T05:24:37;17.37;;;10.43;;
20114;SDS011;10218;42.874;25.320;2022-09-01T05:27:07;16.50;;;10.77;;
20114;SDS011;10218;42.874;25.320;2022-09-01T05:29:34;16.90;;;10.70;;
20114;SDS011;10218;42.874;25.320;2022-09-01T05:32:03;18.13;;;10.83;;
20114;SDS011;10218;42.874;25.320;2022-09-01T05:34:36;18.37;;;10.70;;
20114;SDS011;10218;42.874;25.320;2022-09-01T05:37:06;19.77;;;10.13;;
20114;SDS011;10218;42.874;25.320;2022-09-01T05:39:35;17.13;;;10.60;;
20114;SDS011;10218;42.874;25.320;2022-09-01T05:42:05;20.37;;;10.57;;
20114;SDS011;10218;42.874;25.320;2022-09-01T05:44:37;21.17;;;10.80;;
20114;SDS011;10218;42.874;25.320;2022-09-01T05:47:10;21.87;;;11.10;;
20114;SDS011;10218;42.874;25.320;2022-09-01T05:49:38;16.73;;;10.17;;
20114;SDS011;10218;42.874;25.320;2022-09-01T05:52:06;28.43;;;10.83;;
20114;SDS011;10218;42.874;25.320;2022-09-01T05:54:35;19.67;;;11.13;;
20114;SDS011;10218;42.874;25.320;2022-09-01T05:57:03;18.57;;;11.20;;
20114;SDS011;10218;42.874;25.320;2022-09-01T05:59:44;16.57;;;11.60;;
20114;SDS011;10218;42.874;25.320;2022-09-01T06:02:20;20.57;;;11.50;;
20114;SDS011;10218;42.874;25.320;2022-09-01T06:04:49;26.77;;;12.20;;
20114;SDS011;10218;42.874;25.320;2022-09-01T06:07:23;17.13;;;10.80;;
20114;SDS011;10218;42.874;25.320;2022-09-01T06:09:54;18.17;;;11.07;;
20114;SDS011;10218;42.874;25.320;2022-09-01T06:12:22;21.43;;;10.50;;
20114;SDS011;10218;42.874;25.320;2022-09-01T06:14:51;23.60;;;11.20;;
20114;SDS011;10218;42.874;25.320;2022-09-01T06:17:25;17.03;;;10.20;;
20114;SDS011;10218;42.874;25.320;2022-09-01T06:19:55;18.60;;;10.03;;
20114;SDS011;10218;42.874;25.320;2022-09-01T06:22:25;19.23;;;10.80;;
20114;SDS011;10218;42.874;25.320;2022-09-01T06:24:55;15.23;;;10.17;;
20114;SDS011;10218;42.874;25.320;2022-09-01T06:27:29;19.23;;;10.23;;
20114;SDS011;10218;42.874;25.320;2022-09-01T06:29:58;21.00;;;10.27;;
20114;SDS011;10218;42.874;25.320;2022-09-01T06:32:29;14.97;;;9.97;;
20114;SDS011;10218;42.874;25.320;2022-09-01T06:34:59;20.83;;;9.20;;
20114;SDS011;10218;42.874;25.320;2022-09-01T06:37:31;18.07;;;9.33;;
20114;SDS011;10218;42.874;25.320;2022-09-01T06:40:01;18.57;;;9.07;;
20114;SDS011;10218;42.874;25.320;2022-09-01T06:42:29;16.00;;;8.50;;
20114;SDS011;10218;42.874;25.320;2022-09-01T06:45:01;20.63;;;7.87;;
20114;SDS011;10218;42.874;25.320;2022-09-01T06:47:29;13.13;;;7.10;;
20114;SDS011;10218;42.874;25.320;2022-09-01T06:49:57;15.30;;;8.23;;
20114;SDS011;10218;42.874;25.320;2022-09-01T06:52:25;19.57;;;8.57;;
20114;SDS011;10218;42.874;25.320;2022-09-01T06:54:53;18.70;;;8.37;;
20114;SDS011;10218;42.874;25.320;2022-09-01T06:57:20;13.57;;;8.80;;
20114;SDS011;10218;42.874;25.320;2022-09-01T07:00:09;15.90;;;8.30;;
20114;SDS011;10218;42.874;25.320;2022-09-01T07:02:47;14.60;;;8.00;;
20114;SDS011;10218;42.874;25.320;2022-09-01T07:05:23;16.33;;;7.33;;
20114;SDS011;10218;42.874;25.320;2022-09-01T07:08:12;11.53;;;7.53;;
20114;SDS011;10218;42.874;25.320;2022-09-01T07:10:49;15.73;;;8.00;;
20114;SDS011;10218;42.874;25.320;2022-09-01T07:13:44;16.20;;;7.30;;
20114;SDS011;10218;42.874;25.320;2022-09-01T07:16:32;11.47;;;7.70;;
20114;SDS011;10218;42.874;25.320;2022-09-01T07:19:06;11.47;;;7.23;;
20114;SDS011;10218;42.874;25.320;2022-09-01T07:21:43;12.37;;;7.40;;
20114;SDS011;10218;42.874;25.320;2022-09-01T07:24:31;14.03;;;6.97;;
20114;SDS011;10218;42.874;25.320;2022-09-01T07:27:02;10.30;;;6.70;;
20114;SDS011;10218;42.874;25.320;2022-09-01T07:29:37;14.87;;;7.63;;
20114;SDS011;10218;42.874;25.320;2022-09-01T07:32:05;16.37;;;7.03;;
20114;SDS011;10218;42.874;25.320;2022-09-01T07:34:53;15.33;;;6.57;;
20114;SDS011;10218;42.874;25.320;2022-09-01T07:37:22;17.07;;;7.20;;
20114;SDS011;10218;42.874;25.320;2022-09-01T07:40:13;15.10;;;7.37;;
20114;SDS011;10218;42.874;25.320;2022-09-01T07:43:17;12.17;;;6.87;;
20114;SDS011;10218;42.874;25.320;2022-09-01T07:45:53;17.90;;;7.00;;
20114;SDS011;10218;42.874;25.320;2022-09-01T07:48:26;15.20;;;6.93;;
20114;SDS011;10218;42.874;25.320;2022-09-01T07:51:15;14.37;;;6.87;;
20114;SDS011;10218;42.874;25.320;2022-09-01T07:54:04;11.87;;;6.67;;
20114;SDS011;10218;42.874;25.320;2022-09-01T07:56:32;17.80;;;7.03;;
20114;SDS011;10218;42.874;25.320;2022-09-01T07:59:06;11.87;;;6.10;;
20114;SDS011;10218;42.874;25.320;2022-09-01T08:01:39;14.93;;;6.60;;
20114;SDS011;10218;42.874;25.320;2022-09-01T08:04:23;18.93;;;6.73;;
20114;SDS011;10218;42.874;25.320;2022-09-01T08:06:54;11.40;;;5.77;;
20114;SDS011;10218;42.874;25.320;2022-09-01T08:09:30;13.93;;;5.97;;
20114;SDS011;10218;42.874;25.320;2022-09-01T08:11:59;16.50;;;6.53;;
20114;SDS011;10218;42.874;25.320;2022-09-01T08:14:30;14.30;;;6.70;;
20114;SDS011;10218;42.874;25.320;2022-09-01T08:17:03;9.90;;;6.20;;
20114;SDS011;10218;42.874;25.320;2022-09-01T08:19:54;13.80;;;7.07;;
20114;SDS011;10218;42.874;25.320;2022-09-01T08:22:25;12.00;;;6.50;;
20114;SDS011;10218;42.874;25.320;2022-09-01T08:24:56;11.30;;;6.50;;
20114;SDS011;10218;42.874;25.320;2022-09-01T08:27:25;11.67;;;6.27;;
20114;SDS011;10218;42.874;25.320;2022-09-01T08:29:54;13.83;;;6.20;;
20114;SDS011;10218;42.874;25.320;2022-09-01T08:32:24;13.23;;;7.00;;
20114;SDS011;10218;42.874;25.320;2022-09-01T08:34:58;16.47;;;6.07;;
20114;SDS011;10218;42.874;25.320;2022-09-01T08:37:30;13.90;;;6.00;;
20114;SDS011;10218;42.874;25.320;2022-09-01T08:39:58;9.73;;;5.03;;
20114;SDS011;10218;42.874;25.320;2022-09-01T08:45:24;11.67;;;5.57;;
20114;SDS011;10218;42.874;25.320;2022-09-01T08:48:07;10.33;;;5.60;;
20114;SDS011;10218;42.874;25.320;2022-09-01T08:51:13;10.70;;;5.40;;
20114;SDS011;10218;42.874;25.320;2022-09-01T08:54:09;9.00;;;5.20;;
20114;SDS011;10218;42.874;25.320;2022-09-01T08:57:06;11.10;;;5.17;;
20114;SDS011;10218;42.874;25.320;2022-09-01T08:59:42;10.07;;;5.63;;
20114;SDS011;10218;42.874;25.320;2022-09-01T09:10:59;11.12;;;5.15;;
20114;SDS011;10218;42.874;25.320;2022-09-01T09:16:01;9.05;;;5.07;;
20114;SDS011;10218;42.874;25.320;2022-09-01T09:18:36;8.75;;;4.87;;
20114;SDS011;10218;42.874;25.320;2022-09-01T09:21:45;9.75;;;4.72;;
20114;SDS011;10218;42.874;25.320;2022-09-01T09:29:44;5.97;;;4.95;;
20114;SDS011;10218;42.874;25.320;2022-09-01T09:32:12;12.07;;;5.60;;
20114;SDS011;10218;42.874;25.320;2022-09-01T09:35:04;9.77;;;4.43;;
20114;SDS011;10218;42.874;25.320;2022-09-01T09:37:53;13.77;;;5.12;;
20114;SDS011;10218;42.874;25.320;2022-09-01T09:40:25;9.93;;;5.07;;
20114;SDS011;10218;42.874;25.320;2022-09-01T09:45:21;9.82;;;4.50;;
20114;SDS011;10218;42.874;25.320;2022-09-01T09:47:49;8.43;;;4.80;;
20114;SDS011;10218;42.874;25.320;2022-09-01T09:50:28;9.85;;;5.25;;
20114;SDS011;10218;42.874;25.320;2022-09-01T09:55:55;8.57;;;5.10;;
20114;SDS011;10218;42.874;25.320;2022-09-01T09:58:36;10.18;;;4.72;;
20114;SDS011;10218;42.874;25.320;2022-09-01T10:01:11;11.43;;;4.60;;
20114;SDS011;10218;42.874;25.320;2022-09-01T10:06:28;8.90;;;4.57;;
20114;SDS011;10218;42.874;25.320;2022-09-01T10:09:07;21.12;;;9.73;;
20114;SDS011;10218;42.874;25.320;2022-09-01T10:11:44;13.38;;;7.28;;
20114;SDS011;10218;42.874;25.320;2022-09-01T10:14:26;10.65;;;4.60;;
20114;SDS011;10218;42.874;25.320;2022-09-01T10:17:14;11.68;;;5.37;;
20114;SDS011;10218;42.874;25.320;2022-09-01T10:19:52;7.60;;;4.00;;
20114;SDS011;10218;42.874;25.320;2022-09-01T10:22:23;9.57;;;4.50;;
20114;SDS011;10218;42.874;25.320;2022-09-01T10:24:52;9.80;;;4.25;;
20114;SDS011;10218;42.874;25.320;2022-09-01T10:27:21;9.25;;;4.62;;
20114;SDS011;10218;42.874;25.320;2022-09-01T10:29:55;8.65;;;4.62;;
20114;SDS011;10218;42.874;25.320;2022-09-01T10:32:49;9.98;;;4.57;;
20114;SDS011;10218;42.874;25.320;2022-09-01T10:35:28;9.57;;;4.65;;
20114;SDS011;10218;42.874;25.320;2022-09-01T10:37:59;10.65;;;5.10;;
20114;SDS011;10218;42.874;25.320;2022-09-01T10:40:34;13.77;;;4.72;;
20114;SDS011;10218;42.874;25.320;2022-09-01T10:45:53;8.73;;;4.20;;
20114;SDS011;10218;42.874;25.320;2022-09-01T10:48:27;8.57;;;4.97;;
20114;SDS011;10218;42.874;25.320;2022-09-01T10:51:58;9.50;;;4.30;;
20114;SDS011;10218;42.874;25.320;2022-09-01T10:54:01;8.57;;;4.28;;
20114;SDS011;10218;42.874;25.320;2022-09-01T11:10:05;10.68;;;6.22;;
20114;SDS011;10218;42.874;25.320;2022-09-01T11:15:38;8.35;;;5.10;;
20114;SDS011;10218;42.874;25.320;2022-09-01T11:18:09;10.85;;;5.25;;
20114;SDS011;10218;42.874;25.320;2022-09-01T11:20:41;8.18;;;5.15;;
20114;SDS011;10218;42.874;25.320;2022-09-01T11:23:19;12.02;;;5.28;;
20114;SDS011;10218;42.874;25.320;2022-09-01T11:29:51;15.80;;;5.55;;
20114;SDS011;10218;42.874;25.320;2022-09-01T11:32:35;10.32;;;5.70;;
20114;SDS011;10218;42.874;25.320;2022-09-01T11:35:04;12.00;;;5.25;;
20114;SDS011;10218;42.874;25.320;2022-09-01T11:37:41;9.27;;;5.40;;
20114;SDS011;10218;42.874;25.320;2022-09-01T11:40:08;10.47;;;6.10;;
20114;SDS011;10218;42.874;25.320;2022-09-01T11:45:17;13.57;;;6.10;;
20114;SDS011;10218;42.874;25.320;2022-09-01T11:47:51;9.93;;;6.67;;
20114;SDS011;10218;42.874;25.320;2022-09-01T11:53:02;11.37;;;5.87;;
20114;SDS011;10218;42.874;25.320;2022-09-01T11:58:03;14.33;;;6.83;;
20114;SDS011;10218;42.874;25.320;2022-09-01T12:00:34;9.70;;;6.83;;
20114;SDS011;10218;42.874;25.320;2022-09-01T12:03:05;16.83;;;7.23;;
20114;SDS011;10218;42.874;25.320;2022-09-01T12:05:52;16.83;;;6.93;;
20114;SDS011;10218;42.874;25.320;2022-09-01T12:08:34;15.80;;;7.27;;
20114;SDS011;10218;42.874;25.320;2022-09-01T12:11:05;16.27;;;8.30;;
20114;SDS011;10218;42.874;25.320;2022-09-01T12:13:36;13.57;;;7.33;;
20114;SDS011;10218;42.874;25.320;2022-09-01T12:16:07;18.57;;;8.13;;
20114;SDS011;10218;42.874;25.320;2022-09-01T12:18:48;15.10;;;7.63;;
20114;SDS011;10218;42.874;25.320;2022-09-01T12:24:43;14.37;;;7.73;;
20114;SDS011;10218;42.874;25.320;2022-09-01T12:27:02;14.23;;;6.77;;
20114;SDS011;10218;42.874;25.320;2022-09-01T12:29:31;11.77;;;6.67;;
20114;SDS011;10218;42.874;25.320;2022-09-01T12:31:59;13.47;;;6.93;;
20114;SDS011;10218;42.874;25.320;2022-09-01T12:34:59;16.70;;;7.80;;
20114;SDS011;10218;42.874;25.320;2022-09-01T12:37:32;9.53;;;7.10;;
20114;SDS011;10218;42.874;25.320;2022-09-01T12:39:59;13.40;;;6.70;;
20114;SDS011;10218;42.874;25.320;2022-09-01T12:42:27;15.63;;;7.30;;
20114;SDS011;10218;42.874;25.320;2022-09-01T12:45:00;10.03;;;6.67;;
20114;SDS011;10218;42.874;25.320;2022-09-01T12:50:05;11.33;;;7.30;;
20114;SDS011;10218;42.874;25.320;2022-09-01T12:52:33;11.30;;;7.53;;
20114;SDS011;10218;42.874;25.320;2022-09-01T12:58:12;11.63;;;7.77;;
20114;SDS011;10218;42.874;25.320;2022-09-01T13:00:54;21.77;;;8.37;;
20114;SDS011;10218;42.874;25.320;2022-09-01T13:03:21;15.07;;;8.40;;
20114;SDS011;10218;42.874;25.320;2022-09-01T13:05:50;10.47;;;7.77;;
20114;SDS011;10218;42.874;25.320;2022-09-01T13:08:22;14.07;;;7.43;;
20114;SDS011;10218;42.874;25.320;2022-09-01T13:10:57;11.90;;;6.43;;
20114;SDS011;10218;42.874;25.320;2022-09-01T13:13:32;9.67;;;6.03;;
20114;SDS011;10218;42.874;25.320;2022-09-01T13:16:01;15.43;;;6.40;;
20114;SDS011;10218;42.874;25.320;2022-09-01T13:18:38;6.97;;;4.33;;
20114;SDS011;10218;42.874;25.320;2022-09-01T13:21:26;5.73;;;3.77;;
20114;SDS011;10218;42.874;25.320;2022-09-01T13:23:54;7.50;;;4.63;;
20114;SDS011;10218;42.874;25.320;2022-09-01T13:26:22;8.40;;;4.83;;
20114;SDS011;10218;42.874;25.320;2022-09-01T13:28:50;6.77;;;4.70;;
20114;SDS011;10218;42.874;25.320;2022-09-01T13:31:17;10.43;;;5.30;;
20114;SDS011;10218;42.874;25.320;2022-09-01T13:34:00;10.17;;;5.57;;
20114;SDS011;10218;42.874;25.320;2022-09-01T13:36:34;8.77;;;5.10;;
20114;SDS011;10218;42.874;25.320;2022-09-01T13:39:11;13.83;;;5.23;;
20114;SDS011;10218;42.874;25.320;2022-09-01T13:41:39;7.97;;;5.40;;
20114;SDS011;10218;42.874;25.320;2022-09-01T13:44:06;9.47;;;5.70;;
20114;SDS011;10218;42.874;25.320;2022-09-01T13:46:35;10.87;;;6.47;;
20114;SDS011;10218;42.874;25.320;2022-09-01T13:49:23;11.47;;;6.47;;
20114;SDS011;10218;42.874;25.320;2022-09-01T13:52:11;8.37;;;5.60;;
20114;SDS011;10218;42.874;25.320;2022-09-01T13:54:38;8.73;;;5.73;;
20114;SDS011;10218;42.874;25.320;2022-09-01T13:57:06;10.33;;;5.57;;
20114;SDS011;10218;42.874;25.320;2022-09-01T13:59:33;13.03;;;5.97;;
20114;SDS011;10218;42.874;25.320;2022-09-01T14:02:02;12.13;;;6.30;;
20114;SDS011;10218;42.874;25.320;2022-09-01T14:04:31;12.20;;;6.63;;
20114;SDS011;10218;42.874;25.320;2022-09-01T14:06:58;10.97;;;7.47;;
20114;SDS011;10218;42.874;25.320;2022-09-01T14:09:26;11.37;;;6.90;;
20114;SDS011;10218;42.874;25.320;2022-09-01T14:11:53;8.90;;;6.63;;
20114;SDS011;10218;42.874;25.320;2022-09-01T14:14:21;11.07;;;6.43;;
20114;SDS011;10218;42.874;25.320;2022-09-01T14:16:49;13.43;;;6.97;;
20114;SDS011;10218;42.874;25.320;2022-09-01T14:19:16;16.67;;;7.30;;
20114;SDS011;10218;42.874;25.320;2022-09-01T14:21:44;11.87;;;7.73;;
20114;SDS011;10218;42.874;25.320;2022-09-01T14:24:12;13.87;;;6.77;;
20114;SDS011;10218;42.874;25.320;2022-09-01T14:26:40;10.17;;;6.60;;
20114;SDS011;10218;42.874;25.320;2022-09-01T14:29:07;11.63;;;6.70;;
20114;SDS011;10218;42.874;25.320;2022-09-01T14:31:35;14.90;;;6.03;;
20114;SDS011;10218;42.874;25.320;2022-09-01T14:34:03;9.83;;;6.17;;
20114;SDS011;10218;42.874;25.320;2022-09-01T14:36:32;11.30;;;6.70;;
20114;SDS011;10218;42.874;25.320;2022-09-01T14:38:59;11.10;;;6.33;;
20114;SDS011;10218;42.874;25.320;2022-09-01T14:41:27;13.23;;;6.50;;
20114;SDS011;10218;42.874;25.320;2022-09-01T14:43:54;13.53;;;7.20;;
20114;SDS011;10218;42.874;25.320;2022-09-01T14:46:28;13.23;;;7.20;;
20114;SDS011;10218;42.874;25.320;2022-09-01T14:49:00;10.70;;;6.80;;
20114;SDS011;10218;42.874;25.320;2022-09-01T14:51:28;11.47;;;6.83;;
20114;SDS011;10218;42.874;25.320;2022-09-01T14:54:17;11.53;;;7.10;;
20114;SDS011;10218;42.874;25.320;2022-09-01T14:56:44;11.73;;;7.50;;
20114;SDS011;10218;42.874;25.320;2022-09-01T14:59:31;15.97;;;8.57;;
20114;SDS011;10218;42.874;25.320;2022-09-01T15:01:59;15.57;;;8.00;;
20114;SDS011;10218;42.874;25.320;2022-09-01T15:04:27;17.63;;;7.90;;
20114;SDS011;10218;42.874;25.320;2022-09-01T15:06:54;12.47;;;7.77;;
20114;SDS011;10218;42.874;25.320;2022-09-01T15:09:22;13.53;;;7.93;;
20114;SDS011;10218;42.874;25.320;2022-09-01T15:11:49;13.33;;;7.90;;
20114;SDS011;10218;42.874;25.320;2022-09-01T15:14:17;11.90;;;7.47;;
20114;SDS011;10218;42.874;25.320;2022-09-01T15:16:44;16.80;;;8.40;;
20114;SDS011;10218;42.874;25.320;2022-09-01T15:19:12;14.40;;;9.60;;
20114;SDS011;10218;42.874;25.320;2022-09-01T15:21:40;11.97;;;8.10;;
20114;SDS011;10218;42.874;25.320;2022-09-01T15:24:12;14.33;;;9.30;;
20114;SDS011;10218;42.874;25.320;2022-09-01T15:26:39;31.87;;;21.83;;
20114;SDS011;10218;42.874;25.320;2022-09-01T15:29:06;12.03;;;7.80;;
20114;SDS011;10218;42.874;25.320;2022-09-01T15:31:39;11.93;;;7.50;;
20114;SDS011;10218;42.874;25.320;2022-09-01T15:34:07;9.87;;;7.17;;
20114;SDS011;10218;42.874;25.320;2022-09-01T15:36:35;14.67;;;6.90;;
20114;SDS011;10218;42.874;25.320;2022-09-01T15:39:06;10.47;;;6.97;;
20114;SDS011;10218;42.874;25.320;2022-09-01T15:41:34;13.53;;;7.30;;
20114;SDS011;10218;42.874;25.320;2022-09-01T15:44:03;26.87;;;17.37;;
20114;SDS011;10218;42.874;25.320;2022-09-01T15:46:33;12.80;;;6.77;;
20114;SDS011;10218;42.874;25.320;2022-09-01T15:49:01;15.67;;;8.20;;
20114;SDS011;10218;42.874;25.320;2022-09-01T15:51:37;13.80;;;7.10;;
20114;SDS011;10218;42.874;25.320;2022-09-01T15:54:14;13.60;;;7.00;;
20114;SDS011;10218;42.874;25.320;2022-09-01T15:56:44;12.37;;;7.07;;
20114;SDS011;10218;42.874;25.320;2022-09-01T15:59:13;10.47;;;7.40;;
20114;SDS011;10218;42.874;25.320;2022-09-01T16:01:42;13.13;;;8.67;;
20114;SDS011;10218;42.874;25.320;2022-09-01T16:04:12;13.83;;;6.90;;
20114;SDS011;10218;42.874;25.320;2022-09-01T16:06:47;11.77;;;7.17;;